createdAt,value
2018-02-06T00:00:35.404Z,8.52
2018-02-06T00:03:04.051Z,9.73
2018-02-06T00:05:32.719Z,12.88
2018-02-06T00:08:01.363Z,9.30
2018-02-06T00:10:30.055Z,7.85
2018-02-06T00:12:58.723Z,9.32
2018-02-06T00:15:27.381Z,9.18
2018-02-06T00:17:56.815Z,7.97
2018-02-06T00:20:25.478Z,7.35
2018-02-06T00:22:54.113Z,6.40
2018-02-06T00:25:22.796Z,10.00
2018-02-06T00:27:51.471Z,8.43
2018-02-06T00:30:20.139Z,9.05
2018-02-06T00:32:48.841Z,8.13
2018-02-06T00:35:17.496Z,10.23
2018-02-06T00:37:47.173Z,9.50
2018-02-06T00:40:15.816Z,9.57
2018-02-06T00:42:44.501Z,9.30
2018-02-06T00:45:13.151Z,8.48
2018-02-06T00:47:41.895Z,10.05
2018-02-06T00:50:10.555Z,9.85
2018-02-06T00:52:39.261Z,9.35
2018-02-06T00:55:08.847Z,9.85
2018-02-06T00:57:37.503Z,9.50
2018-02-06T01:00:06.151Z,10.35
2018-02-06T01:02:34.827Z,10.25
2018-02-06T01:05:03.511Z,9.90
2018-02-06T01:07:32.177Z,10.27
2018-02-06T01:10:00.828Z,9.85
2018-02-06T01:12:29.547Z,10.90
2018-02-06T01:14:58.193Z,9.18
2018-02-06T01:17:26.888Z,11.60
2018-02-06T01:19:55.555Z,10.50
2018-02-06T01:22:25.041Z,11.07
2018-02-06T01:24:53.685Z,11.23
2018-02-06T01:27:22.361Z,9.82
2018-02-06T01:29:51.017Z,11.12
2018-02-06T01:32:20.435Z,12.60
2018-02-06T01:34:49.078Z,8.50
2018-02-06T01:37:17.732Z,12.50
2018-02-06T01:39:46.412Z,11.23
2018-02-06T01:44:50.105Z,11.20
2018-02-06T01:47:18.751Z,11.55
2018-02-06T01:49:58.509Z,10.80
2018-02-06T01:52:27.161Z,9.95
2018-02-06T01:54:55.849Z,12.20
2018-02-06T01:57:24.543Z,12.02
2018-02-06T01:59:53.231Z,11.55
2018-02-06T02:02:21.891Z,12.25
2018-02-06T02:04:50.554Z,13.00
2018-02-06T02:07:19.944Z,12.45
2018-02-06T02:09:49.399Z,11.35
2018-02-06T02:12:18.264Z,11.15
2018-02-06T02:14:47.064Z,12.25
2018-02-06T02:17:16.572Z,13.38
2018-02-06T02:19:44.877Z,11.07
2018-02-06T02:22:13.551Z,11.38
2018-02-06T02:24:42.198Z,11.70
2018-02-06T02:27:10.844Z,11.60
2018-02-06T02:29:40.304Z,11.65
2018-02-06T02:32:09.734Z,11.00
2018-02-06T02:34:38.406Z,11.52
2018-02-06T02:37:07.053Z,12.80
2018-02-06T02:39:35.701Z,10.52
2018-02-06T04:38:41.291Z,11.70
2018-02-06T04:41:10.717Z,12.48
2018-02-06T04:43:39.371Z,14.02
2018-02-06T04:46:08.039Z,13.82
2018-02-06T04:48:36.681Z,9.50
2018-02-06T04:51:05.431Z,11.38
2018-02-06T04:53:34.086Z,12.63
2018-02-06T04:56:02.734Z,12.20
2018-02-06T04:58:31.065Z,11.73
2018-02-06T05:00:59.729Z,10.88
2018-02-06T05:03:28.431Z,12.25
2018-02-06T05:05:57.193Z,12.23
2018-02-06T05:08:25.850Z,14.87
2018-02-06T05:10:55.312Z,13.73
2018-02-06T05:13:23.966Z,13.07
2018-02-06T05:15:52.634Z,13.95
2018-02-06T05:18:21.884Z,17.62
2018-02-06T05:20:50.537Z,15.18
2018-02-06T05:23:19.191Z,12.35
2018-02-06T05:25:47.848Z,12.20
2018-02-06T05:28:16.509Z,14.45
2018-02-06T05:30:45.248Z,11.15
2018-02-06T05:33:14.660Z,13.20
2018-02-06T05:35:43.316Z,15.45
2018-02-06T05:38:11.976Z,11.98
2018-02-06T05:40:40.655Z,13.20
2018-02-06T05:43:09.319Z,15.95
2018-02-06T05:45:37.967Z,15.10
2018-02-06T05:48:06.615Z,16.12
2018-02-06T05:50:35.269Z,16.90
2018-02-06T05:53:03.930Z,15.00
2018-02-06T05:55:33.338Z,12.30
2018-02-06T05:58:02.773Z,12.48
2018-02-06T06:00:31.419Z,13.48
2018-02-06T06:03:01.207Z,13.48
2018-02-06T06:05:29.874Z,16.48
2018-02-06T06:07:58.518Z,11.65
2018-02-06T06:10:28.317Z,12.95
2018-02-06T06:12:57.010Z,14.40
2018-02-06T06:15:25.770Z,12.10
2018-02-06T06:17:54.432Z,14.25
2018-02-06T06:20:23.076Z,10.80
2018-02-06T06:22:51.717Z,16.08
2018-02-06T06:25:21.144Z,13.10
2018-02-06T06:27:50.557Z,15.30
2018-02-06T06:30:19.263Z,15.02
2018-02-06T06:32:47.916Z,17.00
2018-02-06T06:35:19.676Z,16.05
2018-02-06T06:37:48.343Z,15.20
2018-02-06T06:40:17.831Z,15.40
2018-02-06T06:42:46.494Z,17.00
2018-02-06T06:45:15.124Z,13.02
2018-02-06T06:47:44.536Z,15.02
2018-02-06T06:50:14.130Z,13.65
2018-02-06T06:52:42.785Z,12.90
2018-02-06T06:55:11.486Z,15.05
2018-02-06T06:57:40.904Z,16.52
2018-02-06T07:00:10.337Z,14.80
2018-02-06T07:02:39.003Z,19.70
2018-02-06T07:05:08.415Z,16.10
2018-02-06T07:07:36.739Z,15.10
2018-02-06T07:10:05.389Z,14.50
2018-02-06T07:12:34.016Z,12.30
2018-02-06T07:15:02.664Z,13.52
2018-02-06T07:17:31.333Z,17.52
2018-02-06T07:20:00.014Z,12.68
2018-02-06T07:22:29.499Z,13.35
2018-02-06T07:24:58.914Z,14.85
2018-02-06T07:27:27.657Z,11.60
2018-02-06T07:29:56.299Z,13.95
2018-02-06T07:32:24.977Z,15.95
2018-02-06T07:34:53.618Z,14.25
2018-02-06T07:37:22.270Z,15.98
2018-02-06T07:39:50.919Z,15.07
2018-02-06T07:42:20.326Z,13.15
2018-02-06T07:44:49.796Z,11.82
2018-02-06T07:47:19.288Z,17.17
2018-02-06T07:49:48.800Z,13.82
2018-02-06T07:52:17.448Z,14.50
2018-02-06T07:54:46.196Z,14.15
2018-02-06T07:57:15.637Z,12.82
2018-02-06T07:59:44.303Z,10.55
2018-02-06T08:02:13.015Z,13.57
2018-02-06T08:04:41.862Z,15.07
2018-02-06T08:07:11.276Z,12.35
2018-02-06T08:09:39.999Z,9.13
2018-02-06T08:12:08.670Z,12.93
2018-02-06T08:14:37.312Z,13.23
2018-02-06T08:17:06.803Z,16.23
2018-02-06T08:19:35.489Z,14.85
2018-02-06T08:22:04.155Z,12.07
2018-02-06T08:24:32.811Z,12.32
2018-02-06T08:27:01.469Z,12.35
2018-02-06T08:29:30.124Z,14.40
2018-02-06T08:31:58.773Z,13.25
2018-02-06T08:34:27.446Z,13.73
2018-02-06T08:36:56.983Z,11.82
2018-02-06T08:39:25.632Z,13.68
2018-02-06T08:41:54.284Z,13.60
2018-02-06T08:44:23.692Z,13.55
2018-02-06T08:46:53.124Z,13.15
2018-02-06T08:49:21.760Z,12.20
2018-02-06T08:51:51.172Z,12.57
2018-02-06T08:54:19.840Z,12.57
2018-02-06T08:56:48.483Z,14.43
2018-02-06T08:59:16.968Z,13.52
2018-02-06T09:01:45.618Z,12.85
2018-02-06T09:04:15.029Z,14.00
2018-02-06T09:06:44.451Z,12.95
2018-02-06T09:09:13.080Z,14.45
2018-02-06T09:11:41.740Z,11.57
2018-02-06T09:14:10.375Z,13.85
2018-02-06T09:16:39.909Z,12.65
2018-02-06T09:19:08.807Z,12.35
2018-02-06T09:21:37.467Z,13.50
2018-02-06T09:24:06.127Z,14.65
2018-02-06T09:26:34.771Z,14.82
2018-02-06T09:29:03.443Z,16.80
2018-02-06T09:31:32.094Z,14.10
2018-02-06T09:34:01.502Z,14.07
2018-02-06T09:36:29.907Z,12.57
2018-02-06T09:38:58.563Z,12.70
2018-02-06T09:41:27.240Z,15.10
2018-02-06T09:43:56.663Z,15.85
2018-02-06T09:46:25.306Z,14.38
2018-02-06T09:48:53.972Z,14.20
2018-02-06T09:51:22.626Z,18.62
2018-02-06T09:53:51.281Z,14.35
2018-02-06T09:56:20.699Z,14.63
2018-02-06T09:58:49.342Z,13.25
2018-02-06T10:01:18.030Z,16.42
2018-02-06T10:03:46.723Z,12.00
2018-02-06T10:06:15.380Z,15.98
2018-02-06T10:08:44.043Z,14.38
2018-02-06T10:11:12.682Z,13.50
2018-02-06T10:13:41.356Z,16.75
2018-02-06T10:16:10.015Z,14.73
2018-02-06T10:18:39.439Z,18.55
2018-02-06T10:21:08.235Z,12.15
2018-02-06T10:23:36.875Z,14.87
2018-02-06T10:26:06.284Z,15.70
2018-02-06T10:28:36.371Z,12.55
2018-02-06T10:31:08.443Z,15.77
2018-02-06T10:33:37.212Z,16.35
2018-02-06T10:36:05.596Z,14.90
2018-02-06T10:38:33.992Z,14.53
2018-02-06T10:41:02.635Z,15.43
2018-02-06T10:43:31.026Z,13.10
2018-02-06T10:46:00.453Z,15.95
2018-02-06T10:48:29.103Z,10.75
2018-02-06T10:50:58.555Z,17.62
2018-02-06T10:53:27.187Z,14.20
2018-02-06T10:55:55.862Z,16.17
2018-02-06T10:58:24.507Z,17.77
2018-02-06T11:00:52.906Z,17.97
2018-02-06T11:03:21.581Z,16.83
2018-02-06T11:05:50.330Z,11.80
2018-02-06T11:08:19.733Z,16.25
2018-02-06T11:10:48.459Z,17.85
2018-02-06T11:13:17.139Z,17.67
2018-02-06T11:15:46.654Z,19.90
2018-02-06T11:18:16.226Z,18.73
2018-02-06T11:20:44.606Z,12.90
2018-02-06T11:23:12.983Z,15.97
2018-02-06T11:25:41.639Z,16.62
2018-02-06T11:28:11.063Z,16.10
2018-02-06T11:30:40.290Z,18.75
2018-02-06T11:33:08.937Z,20.42
2018-02-06T11:35:37.334Z,19.83
2018-02-06T11:38:06.044Z,19.80
2018-02-06T11:40:34.707Z,22.52
2018-02-06T11:43:04.016Z,16.42
2018-02-06T11:45:32.676Z,18.70
2018-02-06T11:48:02.000Z,18.95
2018-02-06T11:50:31.172Z,12.47
2018-02-06T11:52:59.571Z,16.27
2018-02-06T11:55:28.293Z,17.20
2018-02-06T11:57:56.935Z,15.00
2018-02-06T12:00:25.592Z,14.73
2018-02-06T12:02:54.215Z,16.20
2018-02-06T12:05:22.622Z,19.77
2018-02-06T12:07:51.259Z,17.95
2018-02-06T12:10:19.633Z,17.30
2018-02-06T12:12:49.056Z,18.55
2018-02-06T12:15:17.712Z,17.85
2018-02-06T12:17:48.027Z,19.00
2018-02-06T12:20:17.454Z,16.60
2018-02-06T12:22:46.094Z,19.10
2018-02-06T12:25:15.734Z,17.62
2018-02-06T12:27:45.086Z,17.40
2018-02-06T12:30:13.794Z,18.83
2018-02-06T12:32:42.168Z,21.00
2018-02-06T12:35:10.546Z,17.57
2018-02-06T12:37:39.187Z,19.62
2018-02-06T12:40:07.836Z,18.67
2018-02-06T12:42:37.311Z,14.48
2018-02-06T12:45:06.451Z,17.53
2018-02-06T12:47:35.207Z,16.92
2018-02-06T12:50:04.072Z,17.80
2018-02-06T12:52:32.735Z,15.60
2018-02-06T12:55:01.440Z,6.30
2018-02-06T12:57:30.606Z,18.67
2018-02-06T12:59:59.243Z,16.65
2018-02-06T13:02:27.739Z,18.20
2018-02-06T13:04:56.376Z,14.93
2018-02-06T13:07:25.087Z,15.80
2018-02-06T13:09:53.526Z,16.17
2018-02-06T13:12:21.906Z,18.30
2018-02-06T13:14:50.326Z,16.93
2018-02-06T13:17:20.624Z,18.25
2018-02-06T13:19:49.054Z,20.10
2018-02-06T13:22:17.418Z,18.73
2018-02-06T13:24:45.810Z,18.80
2018-02-06T13:27:15.220Z,16.80
2018-02-06T13:29:43.608Z,15.03
2018-02-06T13:32:13.059Z,16.58
2018-02-06T13:34:42.459Z,16.62
2018-02-06T13:37:11.604Z,16.40
2018-02-06T13:39:40.288Z,16.42
2018-02-06T13:42:08.667Z,17.93
2018-02-06T13:44:37.039Z,21.77
2018-02-06T13:47:05.711Z,21.08
2018-02-06T13:49:34.123Z,21.70
2018-02-06T13:52:02.492Z,22.10
2018-02-06T13:54:31.261Z,22.33
2018-02-06T13:56:59.842Z,15.97
2018-02-06T13:59:30.086Z,18.52
2018-02-06T14:01:58.506Z,17.70
2018-02-06T14:04:27.160Z,17.80
2018-02-06T14:06:55.538Z,17.30
2018-02-06T14:09:24.199Z,23.20
2018-02-06T14:11:52.632Z,20.70
2018-02-06T14:14:21.278Z,17.33
2018-02-06T14:16:49.729Z,19.00
2018-02-06T14:19:18.103Z,17.10
2018-02-06T14:21:46.758Z,15.43
2018-02-06T14:24:15.927Z,19.53
2018-02-06T14:26:44.576Z,18.62
2018-02-06T14:29:14.014Z,16.30
2018-02-06T14:31:43.079Z,19.63
2018-02-06T14:34:12.498Z,17.77
2018-02-06T14:36:41.136Z,21.42
2018-02-06T14:39:09.834Z,18.65
2018-02-06T14:41:38.527Z,17.35
2018-02-06T14:44:07.948Z,17.48
2018-02-06T14:46:36.615Z,17.52
2018-02-06T14:49:06.021Z,22.10
2018-02-06T14:51:35.447Z,17.92
2018-02-06T14:54:04.301Z,18.90
2018-02-06T14:56:33.827Z,14.90
2018-02-06T14:59:03.263Z,16.00
2018-02-06T15:01:31.926Z,18.17
2018-02-06T15:04:00.587Z,18.37
2018-02-06T15:06:29.019Z,19.23
2018-02-06T15:08:57.694Z,18.85
2018-02-06T15:11:27.284Z,17.85
2018-02-06T15:13:55.988Z,17.55
2018-02-06T15:16:24.357Z,18.90
2018-02-06T15:18:52.739Z,18.87
2018-02-06T15:21:21.128Z,17.63
2018-02-06T15:23:49.495Z,18.80
2018-02-06T15:26:17.875Z,18.23
2018-02-06T15:28:47.149Z,18.10
2018-02-06T15:31:15.523Z,17.50
2018-02-06T15:33:44.488Z,17.50
2018-02-06T15:36:12.983Z,18.60
2018-02-06T15:38:41.636Z,16.40
2018-02-06T15:41:10.287Z,16.70
2018-02-06T15:43:38.706Z,19.00
2018-02-06T15:46:07.899Z,19.27
2018-02-06T15:48:36.375Z,16.80
2018-02-06T15:51:05.611Z,20.30
2018-02-06T15:53:35.035Z,17.20
2018-02-06T15:56:03.802Z,16.20
2018-02-06T15:58:33.038Z,16.25
2018-02-06T16:01:02.169Z,17.10
2018-02-06T16:03:30.839Z,19.23
2018-02-06T16:06:00.252Z,18.42
2018-02-06T16:08:28.896Z,19.65
2018-02-06T16:10:57.576Z,18.15
2018-02-06T16:13:25.959Z,16.13
2018-02-06T16:15:54.347Z,16.70
2018-02-06T16:18:22.748Z,21.73
2018-02-06T16:20:51.394Z,18.65
2018-02-06T16:23:20.067Z,20.48
2018-02-06T16:25:48.720Z,15.93
2018-02-06T16:28:17.404Z,19.02
2018-02-06T16:30:46.045Z,13.62
2018-02-06T16:33:14.773Z,17.02
2018-02-06T16:35:43.414Z,15.82
2018-02-06T16:38:12.108Z,19.37
2018-02-06T16:40:40.756Z,17.08
2018-02-06T16:43:09.415Z,19.65
2018-02-06T16:45:38.077Z,18.00
2018-02-06T16:48:06.719Z,20.05
2018-02-06T16:50:35.380Z,18.62
2018-02-06T16:53:04.820Z,17.75
2018-02-06T16:55:33.584Z,14.90
2018-02-06T16:58:03.020Z,17.83
2018-02-06T17:00:31.679Z,18.48
2018-02-06T17:03:00.332Z,18.85
2018-02-06T17:05:29.835Z,18.25
2018-02-06T17:07:58.646Z,18.27
2018-02-06T17:10:28.059Z,25.08
2018-02-06T17:12:56.719Z,17.83
2018-02-06T17:15:25.354Z,15.25
2018-02-06T17:17:54.043Z,17.27
2018-02-06T17:20:22.710Z,18.35
2018-02-06T17:22:51.474Z,16.77
2018-02-06T17:25:20.899Z,14.52
2018-02-06T17:27:49.589Z,19.80
2018-02-06T17:30:18.260Z,17.92
2018-02-06T17:32:47.673Z,23.17
2018-02-06T17:35:16.332Z,19.60
2018-02-06T17:37:45.761Z,18.48
2018-02-06T17:40:18.440Z,15.35
2018-02-06T17:42:47.130Z,19.45
2018-02-06T17:45:15.816Z,21.20
2018-02-06T17:47:44.480Z,19.98
2018-02-06T17:50:13.909Z,22.98
2018-02-06T17:52:42.850Z,18.00
2018-02-06T17:55:12.634Z,21.42
2018-02-06T17:57:42.328Z,19.85
2018-02-06T18:00:11.069Z,18.60
2018-02-06T18:02:42.170Z,23.02
2018-02-06T18:05:10.917Z,26.75
2018-02-06T18:07:39.571Z,21.62
2018-02-06T18:10:07.890Z,24.23
2018-02-06T18:12:37.250Z,26.37
2018-02-06T18:15:06.714Z,21.17
2018-02-06T18:17:35.382Z,19.60
2018-02-06T18:20:04.131Z,21.00
2018-02-06T18:22:33.631Z,22.25
2018-02-06T18:25:03.521Z,17.45
2018-02-06T18:27:32.175Z,18.67
2018-02-06T18:30:00.859Z,22.65
2018-02-06T18:32:29.507Z,19.48
2018-02-06T18:34:59.012Z,17.50
2018-02-06T18:37:28.625Z,19.60
2018-02-06T18:39:58.036Z,23.30
2018-02-06T18:42:27.475Z,23.75
2018-02-06T18:44:55.914Z,17.57
2018-02-06T18:47:24.562Z,19.35
2018-02-06T18:49:53.263Z,18.17
2018-02-06T18:52:21.927Z,21.30
2018-02-06T18:54:50.680Z,22.00
2018-02-06T18:57:19.355Z,20.05
2018-02-06T18:59:47.997Z,24.52
2018-02-06T19:02:16.657Z,21.60
2018-02-06T19:04:45.295Z,20.08
2018-02-06T19:07:13.977Z,20.65
2018-02-06T19:09:42.410Z,16.70
2018-02-06T19:12:11.092Z,25.17
2018-02-06T19:14:39.762Z,21.20
2018-02-06T19:17:08.442Z,20.95
2018-02-06T19:19:36.869Z,17.90
2018-02-06T19:22:05.515Z,25.33
2018-02-06T19:24:34.187Z,20.30
2018-02-06T19:27:02.857Z,20.77
2018-02-06T19:29:31.536Z,28.00
2018-02-06T19:32:00.371Z,24.20
2018-02-06T19:34:29.033Z,18.62
2018-02-06T19:36:57.710Z,25.40
2018-02-06T19:39:26.484Z,23.23
2018-02-06T19:41:57.352Z,23.65
2018-02-06T19:44:27.195Z,24.23
2018-02-06T19:46:55.898Z,22.25
2018-02-06T19:49:25.380Z,22.27
2018-02-06T19:51:54.899Z,23.08
2018-02-06T19:54:23.614Z,22.58
2018-02-06T19:56:53.161Z,21.52
2018-02-06T19:59:21.827Z,20.88
2018-02-06T20:01:50.574Z,22.80
2018-02-06T20:04:19.941Z,21.67
2018-02-06T20:06:50.051Z,22.75
2018-02-06T20:09:19.623Z,20.60
2018-02-06T20:11:48.399Z,19.48
2018-02-06T20:14:17.854Z,18.00
2018-02-06T20:16:46.540Z,18.50
2018-02-06T20:19:15.256Z,21.90
2018-02-06T20:21:43.927Z,22.20
2018-02-06T20:24:13.539Z,19.98
2018-02-06T20:26:42.299Z,22.60
2018-02-06T20:29:10.994Z,21.65
2018-02-06T20:31:39.679Z,24.85
2018-02-06T20:34:15.802Z,21.80
2018-02-06T20:36:45.680Z,21.50
2018-02-06T20:39:14.584Z,22.42
2018-02-06T20:41:44.203Z,21.83
2018-02-06T20:44:17.149Z,23.83
2018-02-06T20:46:46.255Z,22.80
2018-02-06T20:49:15.751Z,25.88
2018-02-06T20:51:45.230Z,27.10
2018-02-06T20:54:13.969Z,20.92
2018-02-06T20:56:43.527Z,25.77
2018-02-06T20:59:12.052Z,28.15
2018-02-06T21:01:41.516Z,23.62
2018-02-06T21:04:10.197Z,22.45
2018-02-06T21:06:38.900Z,27.45
2018-02-06T21:09:07.563Z,21.77
2018-02-06T21:11:36.213Z,22.05
2018-02-06T21:14:04.876Z,22.50
2018-02-06T21:16:33.360Z,22.95
2018-02-06T21:19:02.776Z,25.20
2018-02-06T21:21:31.446Z,24.95
2018-02-06T21:24:00.896Z,23.50
2018-02-06T21:26:29.583Z,25.55
2018-02-06T21:28:58.258Z,24.10
2018-02-06T21:31:26.990Z,23.20
2018-02-06T21:33:56.436Z,24.80
2018-02-06T21:36:25.097Z,27.05
2018-02-06T21:38:53.810Z,26.10
2018-02-06T21:41:22.472Z,28.38
2018-02-06T21:43:51.876Z,26.60
2018-02-06T21:46:21.317Z,27.92
2018-02-06T21:48:49.962Z,23.02
2018-02-06T21:51:18.634Z,24.95
2018-02-06T21:53:48.047Z,26.85
2018-02-06T21:56:17.462Z,29.00
2018-02-06T21:58:46.107Z,27.42
2018-02-06T22:01:14.801Z,25.62
2018-02-06T22:03:43.634Z,25.15
2018-02-06T22:06:12.278Z,27.25
2018-02-06T22:08:41.749Z,25.00
2018-02-06T22:11:10.399Z,24.67
2018-02-06T22:13:39.056Z,25.67
2018-02-06T22:16:08.481Z,23.50
2018-02-06T22:18:37.245Z,25.83
2018-02-06T22:21:05.985Z,25.62
2018-02-06T22:23:34.695Z,28.50
2018-02-06T22:26:03.355Z,26.92
2018-02-06T22:28:32.040Z,25.10
2018-02-06T22:31:00.706Z,27.87
2018-02-06T22:33:29.383Z,22.77
2018-02-06T22:35:59.326Z,27.00
2018-02-06T22:38:28.201Z,19.73
2018-02-06T22:40:57.005Z,23.42
2018-02-06T22:43:25.781Z,20.08
2018-02-06T22:45:54.459Z,22.33
2018-02-06T22:48:23.116Z,22.37
2018-02-06T22:50:51.824Z,23.12
2018-02-06T22:53:20.511Z,24.30
2018-02-06T22:55:49.168Z,18.15
2018-02-06T22:58:18.684Z,22.58
2018-02-06T23:00:47.452Z,19.55
2018-02-06T23:03:16.868Z,21.10
2018-02-06T23:05:45.544Z,20.45
2018-02-06T23:08:15.073Z,22.87
2018-02-06T23:10:43.738Z,23.08
2018-02-06T23:13:13.154Z,19.55
2018-02-06T23:15:42.043Z,22.02
2018-02-06T23:18:10.727Z,19.35
2018-02-06T23:20:39.391Z,19.23
2018-02-06T23:23:08.827Z,26.23
2018-02-06T23:25:37.499Z,20.35
2018-02-06T23:28:06.164Z,23.38
2018-02-06T23:30:35.001Z,20.98
2018-02-06T23:33:03.672Z,21.15
2018-02-06T23:35:32.348Z,21.12
2018-02-06T23:38:01.018Z,25.15
2018-02-06T23:40:29.832Z,20.92
2018-02-06T23:42:58.488Z,26.42
2018-02-06T23:45:27.896Z,24.23
2018-02-06T23:47:56.554Z,27.13
2018-02-06T23:50:25.201Z,20.80
2018-02-06T23:52:53.852Z,19.67
2018-02-06T23:55:22.515Z,24.67
2018-02-06T23:57:51.928Z,21.55
